Brook, Indiana
Current Conditions -  °F | °C
As of 9:55 PM on Saturday 20 Dec 2014 (Local Time) from KRZL Reporting Station
Haze Haze  
Wind Chill: 32°   Ceiling: 6500
Heat Index: 32°   Visibility: 5mi
Dew Point: 32°   Wind: 3mph
Humidity: 100%   Direction: 150°SSE
Pressure: 30.28"   Gusts: NA
Location:  40.87°N, 87.36°W
Report Text: KRZL 210355Z AUTO 15003KT 5SM BR OVC065 00/00 A3028 RMK AO2
Loading
Personal Weather Stations






























Interactive Weather Map New forecast layout! Learn more

10-Day Weather Forecast

Advertisements
Track Severe Weather on mobile